createdAt,value
2019-05-05T00:02:01.548Z,2.70
2019-05-05T00:04:49.307Z,2.70
2019-05-05T00:07:25.411Z,2.70
2019-05-05T00:09:55.195Z,2.80
2019-05-05T00:12:42.451Z,2.70
2019-05-05T00:15:29.726Z,2.80
2019-05-05T00:17:59.667Z,2.80
2019-05-05T00:20:29.480Z,2.80
2019-05-05T00:22:59.352Z,2.80
2019-05-05T00:25:29.691Z,2.80
2019-05-05T00:27:59.539Z,2.80
2019-05-05T00:30:29.354Z,2.80
2019-05-05T00:32:59.527Z,2.80
2019-05-05T00:35:29.298Z,2.80
2019-05-05T00:37:59.578Z,2.80
2019-05-05T00:40:29.943Z,2.80
2019-05-05T00:43:00.060Z,2.80
2019-05-05T00:45:30.531Z,2.80
2019-05-05T00:48:15.350Z,2.80
2019-05-05T00:50:45.278Z,2.80
2019-05-05T00:53:15.527Z,2.80
2019-05-05T00:55:45.339Z,2.80
2019-05-05T00:58:15.240Z,2.80
2019-05-05T01:00:50.003Z,2.80
2019-05-05T01:03:24.129Z,2.80
2019-05-05T01:06:08.407Z,2.80
2019-05-05T01:08:38.626Z,2.80
2019-05-05T01:11:08.787Z,2.70
2019-05-05T01:13:38.670Z,2.70
2019-05-05T01:16:08.777Z,2.80
2019-05-05T01:18:38.888Z,2.80
2019-05-05T01:21:09.135Z,2.80
2019-05-05T01:23:39.270Z,2.70
2019-05-05T01:26:10.939Z,2.80
2019-05-05T01:28:41.142Z,2.70
2019-05-05T01:31:14.987Z,2.70
2019-05-05T01:34:18.915Z,2.70
2019-05-05T01:36:54.347Z,2.70
2019-05-05T01:39:45.126Z,2.70
2019-05-05T01:42:15.529Z,2.70
2019-05-05T01:44:45.472Z,2.70
2019-05-05T01:47:15.423Z,2.60
2019-05-05T01:49:45.501Z,2.70
2019-05-05T01:52:15.388Z,2.70
2019-05-05T01:54:45.315Z,2.80
2019-05-05T01:57:15.496Z,2.80
2019-05-05T01:59:45.873Z,2.80
2019-05-05T02:02:15.766Z,2.80
2019-05-05T02:04:46.059Z,2.70
2019-05-05T02:07:15.852Z,2.70
2019-05-05T02:09:46.121Z,2.70
2019-05-05T02:12:16.134Z,2.70
2019-05-05T02:14:46.187Z,2.70
2019-05-05T02:17:16.707Z,2.70
2019-05-05T02:19:46.690Z,2.70
2019-05-05T02:22:16.622Z,2.70
2019-05-05T02:24:46.832Z,2.70
2019-05-05T02:27:19.666Z,2.60
2019-05-05T02:29:56.155Z,2.60
2019-05-05T02:32:45.279Z,2.70
2019-05-05T02:35:16.878Z,2.70
2019-05-05T02:37:48.053Z,2.70
2019-05-05T02:40:18.748Z,2.70
2019-05-05T02:42:49.392Z,2.60
2019-05-05T02:45:38.009Z,2.70
2019-05-05T02:48:15.178Z,2.60
2019-05-05T02:51:02.220Z,2.60
2019-05-05T02:53:35.439Z,2.60
2019-05-05T02:56:08.222Z,2.50
2019-05-05T02:58:39.515Z,2.50
2019-05-05T03:01:36.286Z,2.50
2019-05-05T03:04:08.014Z,2.50
2019-05-05T03:06:43.624Z,2.50
2019-05-05T03:09:14.494Z,2.50
2019-05-05T03:11:47.103Z,2.50
2019-05-05T03:14:20.130Z,2.50
2019-05-05T03:16:51.692Z,2.50
2019-05-05T03:19:23.982Z,2.40
2019-05-05T03:21:55.234Z,2.50
2019-05-05T03:24:25.114Z,2.40
2019-05-05T03:26:55.592Z,2.50
2019-05-05T03:29:25.996Z,2.40
2019-05-05T03:31:56.880Z,2.50
2019-05-05T03:34:27.491Z,2.40
2019-05-05T03:36:57.528Z,2.40
2019-05-05T03:39:30.409Z,2.50
2019-05-05T03:42:18.782Z,2.50
2019-05-05T03:44:55.156Z,2.50
2019-05-05T03:47:25.995Z,2.50
2019-05-05T03:49:56.511Z,2.50
2019-05-05T03:52:26.475Z,2.50
2019-05-05T03:54:57.106Z,2.50
2019-05-05T03:57:27.138Z,2.40
2019-05-05T03:59:57.926Z,2.40
2019-05-05T04:02:58.882Z,2.40
2019-05-05T04:05:41.187Z,2.40
2019-05-05T04:08:11.626Z,2.40
2019-05-05T04:10:43.833Z,2.30
2019-05-05T04:13:14.358Z,2.30
2019-05-05T04:15:45.928Z,2.30
2019-05-05T04:18:23.828Z,2.30
2019-05-05T04:20:54.021Z,2.40
2019-05-05T04:23:24.581Z,2.40
2019-05-05T04:25:54.922Z,2.40
2019-05-05T04:28:24.687Z,2.40
2019-05-05T04:30:54.895Z,2.40
2019-05-05T04:33:25.079Z,2.40
2019-05-05T04:35:54.842Z,2.40
2019-05-05T04:38:24.642Z,2.40
2019-05-05T04:40:54.887Z,2.40
2019-05-05T04:43:25.037Z,2.50
2019-05-05T04:45:54.844Z,2.50
2019-05-05T04:48:30.191Z,2.50
2019-05-05T04:51:09.984Z,2.50
2019-05-05T04:53:57.679Z,2.50
2019-05-05T04:56:29.986Z,2.50
2019-05-05T04:58:59.287Z,2.50
2019-05-05T05:01:29.187Z,2.50
2019-05-05T05:04:16.221Z,2.50
2019-05-05T05:06:54.231Z,2.50
2019-05-05T05:09:24.569Z,2.50
2019-05-05T05:11:55.100Z,2.50
2019-05-05T05:14:24.917Z,2.50
2019-05-05T05:16:56.506Z,2.50
2019-05-05T05:19:26.590Z,2.50
2019-05-05T05:22:01.274Z,2.60
2019-05-05T05:24:29.012Z,2.60
2019-05-05T05:26:58.799Z,2.70
2019-05-05T05:29:29.020Z,2.70
2019-05-05T05:31:58.793Z,2.70
2019-05-05T05:34:28.544Z,2.70
2019-05-05T05:36:58.350Z,2.70
2019-05-05T05:39:58.835Z,2.70
2019-05-05T05:42:28.734Z,2.70
2019-05-05T05:45:23.678Z,2.80
2019-05-05T05:48:14.380Z,2.80
2019-05-05T05:50:56.008Z,2.90
2019-05-05T05:53:25.820Z,2.90
2019-05-05T05:55:55.934Z,2.90
2019-05-05T05:58:26.075Z,3.00
2019-05-05T06:00:57.390Z,3.00
2019-05-05T06:03:27.225Z,3.00
2019-05-05T06:05:57.324Z,3.10
2019-05-05T06:08:29.851Z,3.10
2019-05-05T06:10:59.200Z,3.10
2019-05-05T06:13:29.297Z,3.20
2019-05-05T06:15:59.603Z,3.20
2019-05-05T06:18:29.747Z,3.30
2019-05-05T06:20:59.623Z,3.30
2019-05-05T06:23:29.544Z,3.30
2019-05-05T06:25:59.659Z,3.20
2019-05-05T06:28:29.975Z,3.20
2019-05-05T06:30:59.815Z,3.10
2019-05-05T06:33:29.884Z,3.10
2019-05-05T06:35:59.722Z,3.20
2019-05-05T06:38:29.563Z,3.20
2019-05-05T06:41:14.649Z,3.20
2019-05-05T06:44:00.906Z,3.20
2019-05-05T06:46:34.323Z,3.20
2019-05-05T06:49:04.743Z,3.20
2019-05-05T06:51:35.769Z,3.20
2019-05-05T06:54:05.728Z,3.20
2019-05-05T06:56:35.582Z,3.20
2019-05-05T06:59:07.018Z,3.10
2019-05-05T07:01:37.267Z,3.20
2019-05-05T07:04:07.535Z,3.20
2019-05-05T07:06:37.655Z,3.20
2019-05-05T07:09:08.166Z,3.20
2019-05-05T07:11:37.966Z,3.20
2019-05-05T07:14:08.036Z,3.30
2019-05-05T07:16:38.166Z,3.20
2019-05-05T07:19:09.461Z,3.30
2019-05-05T07:21:39.702Z,3.40
2019-05-05T07:24:09.491Z,3.40
2019-05-05T07:26:39.234Z,3.40
2019-05-05T07:29:09.394Z,3.40
2019-05-05T07:31:40.000Z,3.40
2019-05-05T07:34:11.018Z,3.40
2019-05-05T07:36:48.830Z,3.40
2019-05-05T07:39:19.388Z,3.40
2019-05-05T07:41:50.250Z,3.30
2019-05-05T07:44:28.418Z,3.40
2019-05-05T07:46:54.362Z,3.40
2019-05-05T07:49:24.762Z,3.50
2019-05-05T07:51:55.282Z,3.60
2019-05-05T07:54:25.068Z,3.70
2019-05-05T07:56:55.435Z,3.80
2019-05-05T07:59:25.376Z,3.90
2019-05-05T08:01:55.679Z,4.00
2019-05-05T08:04:25.586Z,4.00
2019-05-05T08:06:57.063Z,4.10
2019-05-05T08:09:26.956Z,4.10
2019-05-05T08:11:56.847Z,4.30
2019-05-05T08:14:27.662Z,4.30
2019-05-05T08:17:07.598Z,4.40
2019-05-05T08:19:56.750Z,4.30
2019-05-05T08:22:26.518Z,4.30
2019-05-05T08:25:14.646Z,4.30
2019-05-05T08:28:14.200Z,4.40
2019-05-05T08:31:03.974Z,4.50
2019-05-05T08:33:33.835Z,4.60
2019-05-05T08:36:04.710Z,4.70
2019-05-05T08:38:34.832Z,4.70
2019-05-05T08:41:05.077Z,4.80
2019-05-05T08:43:34.898Z,4.90
2019-05-05T08:46:05.113Z,5.00
2019-05-05T08:48:35.391Z,5.00
2019-05-05T08:51:06.912Z,5.10
2019-05-05T08:53:44.936Z,5.10
2019-05-05T08:56:09.179Z,5.10
2019-05-05T08:58:40.167Z,5.10
2019-05-05T09:01:10.793Z,5.00
2019-05-05T09:03:40.674Z,5.00
2019-05-05T09:06:10.651Z,4.90
2019-05-05T09:08:40.429Z,4.90
2019-05-05T09:11:10.265Z,5.00
2019-05-05T09:13:40.230Z,5.00
2019-05-05T09:16:10.448Z,5.10
2019-05-05T09:18:58.264Z,5.20
2019-05-05T09:21:28.046Z,5.30
2019-05-05T09:24:02.602Z,5.50
2019-05-05T09:26:49.196Z,5.70
2019-05-05T09:29:28.799Z,5.80
2019-05-05T09:31:58.559Z,5.90
2019-05-05T09:34:29.178Z,6.00
2019-05-05T09:36:59.588Z,6.10
2019-05-05T09:39:30.023Z,6.00
2019-05-05T09:42:00.520Z,5.90
2019-05-05T09:44:30.802Z,5.80
2019-05-05T09:47:01.094Z,5.70
2019-05-05T09:49:30.880Z,5.80
2019-05-05T09:52:00.827Z,5.80
2019-05-05T09:54:31.319Z,6.10
2019-05-05T09:57:01.176Z,6.20
2019-05-05T09:59:31.058Z,6.40
2019-05-05T10:02:00.998Z,6.60
2019-05-05T10:04:32.382Z,6.70
2019-05-05T10:07:04.248Z,6.60
2019-05-05T10:09:34.663Z,6.60
2019-05-05T10:12:05.449Z,6.60
2019-05-05T10:14:37.051Z,6.80
2019-05-05T10:17:06.942Z,6.80
2019-05-05T10:19:37.243Z,6.90
2019-05-05T10:22:07.082Z,6.90
2019-05-05T10:24:44.330Z,6.80
2019-05-05T10:27:15.407Z,6.80
2019-05-05T10:29:45.554Z,6.80
2019-05-05T10:32:16.498Z,6.70
2019-05-05T10:35:00.960Z,6.50
2019-05-05T10:37:30.863Z,6.50
2019-05-05T10:40:00.712Z,6.30
2019-05-05T10:42:47.792Z,6.20
2019-05-05T10:45:18.091Z,6.10
2019-05-05T10:47:48.766Z,6.10
2019-05-05T10:50:18.950Z,6.00
2019-05-05T10:52:49.684Z,6.00
2019-05-05T10:55:20.239Z,5.90
2019-05-05T10:57:50.470Z,5.90
2019-05-05T11:00:38.157Z,5.90
2019-05-05T11:03:08.147Z,5.90
2019-05-05T11:05:38.428Z,5.90
2019-05-05T11:08:10.140Z,5.90
2019-05-05T11:10:40.618Z,5.90
2019-05-05T11:13:10.729Z,5.80
2019-05-05T11:15:40.765Z,5.60
2019-05-05T11:18:14.595Z,5.00
2019-05-05T11:20:44.657Z,4.40
2019-05-05T11:23:15.443Z,3.90
2019-05-05T11:25:46.503Z,3.70
2019-05-05T11:28:16.472Z,3.70
2019-05-05T11:30:47.543Z,3.80
2019-05-05T11:33:34.819Z,3.90
2019-05-05T11:36:09.102Z,4.00
2019-05-05T11:38:41.718Z,4.20
2019-05-05T11:41:14.154Z,4.50
2019-05-05T11:43:47.029Z,4.70
2019-05-05T11:46:17.438Z,5.00
2019-05-05T11:48:47.449Z,5.30
2019-05-05T11:51:17.690Z,5.40
2019-05-05T11:53:48.007Z,5.50
2019-05-05T11:56:18.067Z,5.60
2019-05-05T11:58:48.521Z,5.60
2019-05-05T12:01:19.178Z,5.60
2019-05-05T12:03:49.202Z,5.60
2019-05-05T12:06:20.663Z,5.60
2019-05-05T12:08:50.616Z,5.60
2019-05-05T12:11:20.719Z,5.60
2019-05-05T12:13:50.669Z,5.70
2019-05-05T12:16:31.355Z,5.80
2019-05-05T12:19:05.034Z,5.80
2019-05-05T12:21:34.911Z,5.70
2019-05-05T12:24:10.966Z,5.70
2019-05-05T12:26:51.706Z,5.80
2019-05-05T12:29:30.939Z,5.80
2019-05-05T12:32:01.101Z,5.70
2019-05-05T12:34:34.028Z,5.60
2019-05-05T12:37:05.331Z,5.50
2019-05-05T12:39:34.966Z,5.40
2019-05-05T12:42:05.142Z,5.20
2019-05-05T12:44:42.230Z,5.20
2019-05-05T12:47:19.833Z,5.20
2019-05-05T12:49:49.594Z,5.20
2019-05-05T12:52:19.400Z,5.30
2019-05-05T12:54:49.207Z,5.40
2019-05-05T12:57:19.051Z,5.50
2019-05-05T12:59:49.285Z,5.60
2019-05-05T13:02:20.019Z,5.70
2019-05-05T13:04:50.015Z,5.60
2019-05-05T13:07:20.665Z,5.60
2019-05-05T13:09:51.250Z,5.60
2019-05-05T13:12:21.332Z,5.60
2019-05-05T13:14:51.718Z,5.60
2019-05-05T13:17:24.390Z,5.70
2019-05-05T13:20:10.447Z,5.60
2019-05-05T13:22:54.095Z,5.60
2019-05-05T13:25:56.157Z,5.10
2019-05-05T13:28:20.303Z,4.60
2019-05-05T13:30:50.525Z,4.40
2019-05-05T13:33:20.418Z,4.10
2019-05-05T13:35:50.698Z,4.00
2019-05-05T13:38:21.091Z,3.90
2019-05-05T13:40:51.599Z,3.80
2019-05-05T13:43:23.761Z,3.80
2019-05-05T13:46:03.064Z,3.80
2019-05-05T13:48:33.785Z,3.80
2019-05-05T13:51:04.991Z,3.90
2019-05-05T13:53:36.070Z,3.90
2019-05-05T13:56:11.489Z,4.00
2019-05-05T13:58:37.990Z,4.20
2019-05-05T14:01:09.842Z,4.30
2019-05-05T14:03:40.174Z,4.40
2019-05-05T14:06:09.958Z,4.60
2019-05-05T14:08:40.137Z,4.70
2019-05-05T14:11:10.418Z,4.80
2019-05-05T14:13:40.579Z,4.90
2019-05-05T14:18:48.794Z,5.20
2019-05-05T14:21:19.771Z,5.30
2019-05-05T14:24:06.729Z,5.40
2019-05-05T14:26:38.391Z,5.60
2019-05-05T14:29:10.848Z,5.80
2019-05-05T14:32:13.531Z,6.00
2019-05-05T14:34:48.256Z,6.10
2019-05-05T14:37:53.507Z,6.40
2019-05-05T14:40:23.341Z,6.50
2019-05-05T14:42:54.019Z,6.70
2019-05-05T14:45:24.261Z,6.80
2019-05-05T14:47:54.734Z,6.80
2019-05-05T14:50:25.168Z,7.00
2019-05-05T14:52:55.179Z,7.20
2019-05-05T14:55:25.672Z,7.20
2019-05-05T14:57:55.473Z,7.20
2019-05-05T15:00:26.382Z,7.10
2019-05-05T15:02:56.442Z,7.00
2019-05-05T15:05:44.520Z,6.90
2019-05-05T15:08:33.367Z,6.80
2019-05-05T15:11:08.617Z,6.70
2019-05-05T15:13:38.543Z,6.60
2019-05-05T15:16:10.252Z,6.40
2019-05-05T15:18:40.769Z,6.30
2019-05-05T15:21:10.611Z,6.20
2019-05-05T15:23:40.426Z,6.20
2019-05-05T15:26:12.499Z,6.20
2019-05-05T15:28:43.937Z,6.20
2019-05-05T15:31:14.546Z,6.30
2019-05-05T15:33:44.484Z,6.40
2019-05-05T15:36:14.410Z,6.40
2019-05-05T15:38:44.535Z,6.50
2019-05-05T15:41:14.837Z,6.50
2019-05-05T15:43:45.438Z,6.50
2019-05-05T15:46:15.986Z,6.60
2019-05-05T15:48:46.337Z,6.70
2019-05-05T15:51:16.808Z,6.70
2019-05-05T15:53:47.377Z,6.70
2019-05-05T15:56:17.375Z,6.80
2019-05-05T15:58:47.857Z,6.80
2019-05-05T16:01:19.097Z,6.80
2019-05-05T16:03:49.508Z,6.80
2019-05-05T16:06:19.425Z,6.80
2019-05-05T16:08:50.705Z,6.80
2019-05-05T16:11:20.825Z,6.80
2019-05-05T16:13:50.843Z,6.80
2019-05-05T16:16:30.250Z,6.80
2019-05-05T16:19:18.965Z,6.80
2019-05-05T16:22:00.727Z,6.80
2019-05-05T16:24:36.536Z,6.80
2019-05-05T16:27:18.399Z,6.90
2019-05-05T16:29:38.447Z,6.80
2019-05-05T16:32:19.541Z,6.80
2019-05-05T16:34:42.096Z,6.80
2019-05-05T16:37:14.323Z,6.90
2019-05-05T16:39:45.129Z,6.90
2019-05-05T16:42:15.814Z,6.90
2019-05-05T16:44:45.773Z,6.90
2019-05-05T16:47:16.809Z,6.90
2019-05-05T16:49:46.913Z,6.90
2019-05-05T16:52:24.168Z,6.90
2019-05-05T16:55:08.537Z,6.80
2019-05-05T16:57:39.102Z,6.80
2019-05-05T17:00:09.516Z,6.80
2019-05-05T17:02:40.022Z,6.70
2019-05-05T17:05:10.580Z,6.70
2019-05-05T17:07:41.469Z,6.80
2019-05-05T17:10:13.857Z,6.70
2019-05-05T17:12:44.628Z,6.80
2019-05-05T17:15:35.248Z,6.80
2019-05-05T17:18:32.502Z,6.80
2019-05-05T17:21:01.783Z,6.80
2019-05-05T17:23:34.055Z,6.80
2019-05-05T17:26:03.998Z,6.70
2019-05-05T17:28:34.607Z,6.70
2019-05-05T17:31:05.208Z,6.70
2019-05-05T17:33:38.414Z,6.50
2019-05-05T17:36:07.947Z,6.50
2019-05-05T17:38:38.765Z,6.40
2019-05-05T17:41:20.546Z,6.40
2019-05-05T17:43:57.077Z,6.20
2019-05-05T17:46:39.295Z,6.10
2019-05-05T17:49:18.931Z,6.10
2019-05-05T17:51:59.300Z,6.00
2019-05-05T17:54:33.899Z,6.00
2019-05-05T17:57:04.521Z,5.90
2019-05-05T17:59:36.371Z,5.90
2019-05-05T18:02:08.395Z,5.80
2019-05-05T18:04:40.084Z,5.80
2019-05-05T18:07:28.614Z,5.70
2019-05-05T18:10:18.646Z,5.50
2019-05-05T18:13:06.703Z,5.20
2019-05-05T18:15:58.633Z,4.90
2019-05-05T18:18:29.119Z,4.60
2019-05-05T18:20:59.866Z,4.50
2019-05-05T18:23:30.553Z,4.40
2019-05-05T18:26:03.962Z,4.40
2019-05-05T18:28:34.163Z,4.40
2019-05-05T18:31:06.038Z,4.50
2019-05-05T18:33:36.927Z,4.50
2019-05-05T18:36:07.896Z,4.60
2019-05-05T18:38:39.260Z,4.60
2019-05-05T18:41:14.926Z,4.70
2019-05-05T18:43:52.005Z,4.70
2019-05-05T18:46:24.319Z,4.70
2019-05-05T18:48:56.162Z,4.70
2019-05-05T18:51:27.790Z,4.80
2019-05-05T18:53:59.131Z,4.80
2019-05-05T18:56:29.951Z,4.80
2019-05-05T18:59:03.807Z,4.80
2019-05-05T19:01:44.523Z,4.80
2019-05-05T19:04:20.161Z,4.80
2019-05-05T19:07:00.816Z,4.80
2019-05-05T19:09:31.787Z,4.80
2019-05-05T19:12:04.581Z,4.80
2019-05-05T19:14:36.657Z,4.80
2019-05-05T19:17:07.451Z,4.80
2019-05-05T19:19:40.237Z,4.80
2019-05-05T19:22:13.942Z,4.80
2019-05-05T19:24:45.219Z,4.80
2019-05-05T19:27:15.765Z,4.80
2019-05-05T19:29:46.870Z,4.80
2019-05-05T19:32:18.445Z,4.80
2019-05-05T19:34:50.230Z,4.80
2019-05-05T19:37:21.177Z,4.80
2019-05-05T19:39:52.600Z,4.80
2019-05-05T19:42:23.951Z,4.90
2019-05-05T19:44:57.574Z,4.90
2019-05-05T19:47:28.886Z,5.00
2019-05-05T19:50:08.986Z,5.00
2019-05-05T19:52:39.410Z,5.10
2019-05-05T19:55:10.824Z,5.00
2019-05-05T19:57:41.169Z,5.00
2019-05-05T20:00:14.447Z,5.00
2019-05-05T20:02:45.300Z,5.00
2019-05-05T20:05:16.912Z,5.00
2019-05-05T20:07:48.212Z,4.90
2019-05-05T20:10:19.558Z,4.90
2019-05-05T20:12:54.051Z,4.90
2019-05-05T20:15:35.344Z,4.90
2019-05-05T20:18:07.180Z,4.90
2019-05-05T20:20:38.115Z,4.90
2019-05-05T20:23:08.513Z,4.80
2019-05-05T20:25:39.280Z,4.80
2019-05-05T20:28:11.046Z,4.70
2019-05-05T20:30:42.322Z,4.70
2019-05-05T20:33:24.321Z,4.60
2019-05-05T20:36:00.652Z,4.60
2019-05-05T20:38:33.057Z,4.60
2019-05-05T20:41:14.164Z,4.60
2019-05-05T20:43:45.991Z,4.60
2019-05-05T20:46:16.710Z,4.60
2019-05-05T20:48:46.797Z,4.60
2019-05-05T20:51:16.590Z,4.70
2019-05-05T20:53:49.113Z,4.70
2019-05-05T20:56:17.835Z,4.70
2019-05-05T20:58:47.934Z,4.60
2019-05-05T21:01:20.860Z,4.70
2019-05-05T21:03:50.996Z,4.80
2019-05-05T21:06:24.427Z,4.90
2019-05-05T21:08:54.027Z,4.90
2019-05-05T21:11:24.760Z,4.90
2019-05-05T21:13:55.252Z,5.00
2019-05-05T21:16:25.742Z,5.00
2019-05-05T21:19:00.434Z,5.00
2019-05-05T21:21:34.364Z,5.10
2019-05-05T21:24:05.024Z,5.20
2019-05-05T21:26:52.457Z,5.20
2019-05-05T21:29:23.681Z,5.10
2019-05-05T21:31:54.964Z,5.10
2019-05-05T21:34:26.384Z,5.10
2019-05-05T21:36:57.107Z,5.10
2019-05-05T21:39:27.711Z,5.10
2019-05-05T21:42:01.461Z,5.10
2019-05-05T21:44:37.553Z,5.10
2019-05-05T21:47:09.471Z,5.10
2019-05-05T21:49:39.916Z,5.00
2019-05-05T21:52:20.031Z,5.10
2019-05-05T21:55:07.851Z,5.10
2019-05-05T21:58:05.395Z,5.10
2019-05-05T22:00:54.625Z,5.10
2019-05-05T22:03:30.575Z,5.10
2019-05-05T22:06:00.854Z,5.10
2019-05-05T22:08:30.641Z,5.10
2019-05-05T22:11:00.817Z,5.00
2019-05-05T22:13:30.646Z,5.00
2019-05-05T22:16:00.399Z,5.10
2019-05-05T22:18:30.158Z,5.10
2019-05-05T22:21:19.004Z,5.00
2019-05-05T22:24:06.370Z,5.00
2019-05-05T22:26:37.008Z,4.90
2019-05-05T22:29:06.889Z,4.90
2019-05-05T22:31:36.659Z,4.90
2019-05-05T22:34:06.774Z,4.80
2019-05-05T22:36:36.625Z,4.80
2019-05-05T22:39:08.735Z,4.80
2019-05-05T22:41:38.900Z,4.80
2019-05-05T22:44:08.770Z,4.90
2019-05-05T22:46:38.807Z,4.80
2019-05-05T22:49:08.632Z,4.80
2019-05-05T22:51:38.855Z,4.80
2019-05-05T22:54:09.165Z,4.80
2019-05-05T22:56:39.292Z,4.70
2019-05-05T22:59:09.344Z,4.70
2019-05-05T23:01:39.231Z,4.70
2019-05-05T23:04:28.195Z,4.60
2019-05-05T23:07:11.775Z,4.60
2019-05-05T23:09:41.893Z,4.60
2019-05-05T23:12:13.663Z,4.50
2019-05-05T23:14:43.789Z,4.40
2019-05-05T23:17:43.692Z,4.30
2019-05-05T23:20:25.091Z,4.30
2019-05-05T23:23:07.450Z,4.20
2019-05-05T23:25:39.432Z,4.20
2019-05-05T23:28:09.238Z,4.10
2019-05-05T23:30:41.878Z,4.10
2019-05-05T23:33:10.854Z,4.10
2019-05-05T23:35:40.997Z,4.10
2019-05-05T23:38:10.813Z,4.10
2019-05-05T23:40:40.573Z,4.00
2019-05-05T23:43:10.401Z,3.90
2019-05-05T23:45:40.522Z,3.90
2019-05-05T23:48:10.286Z,3.90
2019-05-05T23:50:40.428Z,3.80
2019-05-05T23:53:10.215Z,3.80
2019-05-05T23:55:40.022Z,3.80
2019-05-05T23:58:10.097Z,3.70
